createdAt,value
2018-01-08T00:01:18.859Z,14.77
2018-01-08T00:03:48.212Z,14.20
2018-01-08T00:06:17.512Z,13.10
2018-01-08T00:08:46.300Z,12.97
2018-01-08T00:11:16.309Z,11.27
2018-01-08T00:13:45.463Z,12.70
2018-01-08T00:16:13.679Z,12.47
2018-01-08T00:18:42.783Z,12.90
2018-01-08T00:21:11.656Z,11.13
2018-01-08T00:23:42.764Z,11.97
2018-01-08T00:26:13.596Z,13.33
2018-01-08T00:28:42.882Z,12.73
2018-01-08T00:31:10.748Z,13.17
2018-01-08T00:33:41.040Z,13.63
2018-01-08T00:36:10.749Z,11.97
2018-01-08T00:38:42.456Z,12.50
2018-01-08T00:41:12.462Z,12.20
2018-01-08T00:43:40.702Z,12.37
2018-01-08T00:46:10.235Z,12.07
2018-01-08T00:48:39.514Z,11.90
2018-01-08T00:51:08.921Z,13.17
2018-01-08T00:53:37.952Z,12.13
2018-01-08T00:56:08.254Z,12.87
2018-01-08T00:58:37.564Z,11.40
2018-01-08T01:01:07.898Z,11.67
2018-01-08T01:03:36.193Z,10.87
2018-01-08T01:06:05.815Z,11.00
2018-01-08T01:08:35.990Z,9.27
2018-01-08T01:11:08.367Z,10.30
2018-01-08T01:13:41.563Z,10.37
2018-01-08T01:16:09.680Z,10.90
2018-01-08T01:18:40.056Z,11.77
2018-01-08T01:21:08.018Z,10.57
2018-01-08T01:23:37.672Z,12.60
2018-01-08T01:26:08.148Z,11.13
2018-01-08T01:28:36.489Z,11.20
2018-01-08T01:31:05.365Z,12.87
2018-01-08T01:33:34.425Z,11.77
2018-01-08T01:36:04.009Z,10.90
2018-01-08T01:38:31.587Z,11.87
2018-01-08T01:41:00.157Z,11.37
2018-01-08T01:43:28.350Z,11.77
2018-01-08T01:45:57.459Z,11.60
2018-01-08T01:48:25.036Z,10.90
2018-01-08T01:50:53.012Z,11.83
2018-01-08T01:53:21.416Z,11.30
2018-01-08T01:55:49.884Z,11.93
2018-01-08T01:58:17.468Z,12.10
2018-01-08T02:00:45.175Z,13.07
2018-01-08T02:03:13.658Z,13.20
2018-01-08T02:05:41.362Z,12.07
2018-01-08T02:08:09.341Z,13.10
2018-01-08T02:10:37.836Z,12.50
2018-01-08T02:13:06.464Z,14.00
2018-01-08T02:15:34.278Z,12.63
2018-01-08T02:18:02.561Z,11.77
2018-01-08T02:20:30.767Z,12.37
2018-01-08T02:22:59.199Z,13.33
2018-01-08T02:25:29.256Z,12.00
2018-01-08T02:27:57.799Z,13.53
2018-01-08T02:30:26.291Z,11.03
2018-01-08T02:32:54.435Z,12.50
2018-01-08T02:35:21.971Z,13.50
2018-01-08T02:37:50.313Z,11.40
2018-01-08T02:40:18.555Z,11.60
2018-01-08T02:42:47.842Z,11.50
2018-01-08T02:45:17.358Z,11.47
2018-01-08T02:47:45.030Z,11.33
2018-01-08T02:50:12.719Z,11.43
2018-01-08T02:52:40.422Z,12.70
2018-01-08T02:55:08.584Z,10.87
2018-01-08T02:57:37.204Z,11.87
2018-01-08T03:00:05.196Z,11.13
2018-01-08T03:02:33.871Z,11.50
2018-01-08T03:05:02.749Z,11.17
2018-01-08T03:07:30.898Z,11.00
2018-01-08T03:09:58.439Z,10.60
2018-01-08T03:12:27.819Z,10.57
2018-01-08T03:14:56.352Z,10.63
2018-01-08T03:17:23.955Z,12.27
2018-01-08T03:19:52.081Z,11.90
2018-01-08T03:22:20.135Z,11.60
2018-01-08T03:24:48.508Z,11.90
2018-01-08T03:27:16.808Z,12.77
2018-01-08T03:29:46.526Z,12.70
2018-01-08T03:32:14.708Z,12.73
2018-01-08T03:34:43.099Z,12.93
2018-01-08T03:37:21.526Z,13.57
2018-01-08T03:39:49.149Z,13.80
2018-01-08T03:42:17.192Z,14.90
2018-01-08T03:44:44.745Z,14.93
2018-01-08T03:47:13.107Z,13.20
2018-01-08T03:49:42.711Z,13.10
2018-01-08T03:52:11.025Z,12.07
2018-01-08T03:54:40.546Z,11.80
2018-01-08T03:57:09.184Z,14.40
2018-01-08T03:59:38.082Z,13.33
2018-01-08T04:02:07.425Z,12.93
2018-01-08T04:04:35.405Z,13.10
2018-01-08T04:07:03.197Z,13.73
2018-01-08T04:09:30.783Z,12.00
2018-01-08T04:11:59.028Z,11.60
2018-01-08T04:14:28.170Z,11.90
2018-01-08T04:16:55.724Z,12.80
2018-01-08T04:19:23.326Z,10.50
2018-01-08T04:21:51.298Z,11.70
2018-01-08T04:24:21.066Z,11.87
2018-01-08T04:26:48.616Z,11.73
2018-01-08T04:29:17.115Z,10.27
2018-01-08T04:31:45.533Z,10.93
2018-01-08T04:34:16.403Z,11.73
2018-01-08T04:36:45.623Z,10.60
2018-01-08T04:39:13.235Z,11.70
2018-01-08T04:41:41.725Z,10.60
2018-01-08T04:44:10.147Z,12.07
2018-01-08T04:46:37.788Z,12.07
2018-01-08T04:49:05.466Z,12.07
2018-01-08T04:51:33.160Z,11.53
2018-01-08T04:54:02.138Z,11.13
2018-01-08T04:56:30.574Z,10.57
2018-01-08T04:58:58.163Z,11.90
2018-01-08T05:01:27.570Z,11.43
2018-01-08T05:03:57.884Z,11.53
2018-01-08T05:06:27.664Z,12.37
2018-01-08T05:08:57.473Z,11.97
2018-01-08T05:11:27.419Z,12.37
2018-01-08T05:13:55.888Z,12.70
2018-01-08T05:16:24.218Z,11.57
2018-01-08T05:18:52.744Z,12.27
2018-01-08T05:21:21.490Z,12.40
2018-01-08T05:23:50.757Z,13.47
2018-01-08T05:26:18.298Z,12.43
2018-01-08T05:28:47.223Z,12.63
2018-01-08T05:31:14.760Z,12.40
2018-01-08T05:33:44.073Z,12.07
2018-01-08T05:36:12.448Z,12.00
2018-01-08T05:38:41.286Z,11.63
2018-01-08T05:41:09.321Z,11.67
2018-01-08T05:43:37.303Z,12.60
2018-01-08T05:46:05.086Z,11.87
2018-01-08T05:48:33.141Z,11.10
2018-01-08T05:51:02.016Z,12.17
2018-01-08T05:53:30.347Z,11.93
2018-01-08T05:55:57.900Z,12.30
2018-01-08T05:58:26.254Z,12.50
2018-01-08T06:00:55.567Z,13.00
2018-01-08T06:03:24.599Z,13.97
2018-01-08T06:05:52.135Z,14.13
2018-01-08T06:08:21.317Z,12.87
2018-01-08T06:10:49.594Z,13.87
2018-01-08T06:13:17.287Z,13.13
2018-01-08T06:15:45.957Z,12.07
2018-01-08T06:18:15.878Z,12.83
2018-01-08T06:20:45.048Z,11.53
2018-01-08T06:23:13.499Z,11.30
2018-01-08T06:25:41.293Z,12.63
2018-01-08T06:28:10.858Z,12.33
2018-01-08T06:30:40.428Z,11.87
2018-01-08T06:33:09.633Z,11.03
2018-01-08T06:35:39.709Z,10.30
2018-01-08T06:38:09.231Z,11.10
2018-01-08T06:40:39.208Z,10.90
2018-01-08T06:43:09.876Z,11.63
2018-01-08T06:45:40.596Z,11.90
2018-01-08T06:48:09.173Z,11.27
2018-01-08T06:50:39.339Z,11.97
2018-01-08T06:53:09.603Z,12.13
2018-01-08T06:55:42.091Z,12.67
2018-01-08T06:58:13.091Z,13.30
2018-01-08T07:00:43.358Z,13.03
2018-01-08T07:03:19.561Z,12.33
2018-01-08T07:05:48.091Z,12.47
2018-01-08T07:08:18.294Z,12.50
2018-01-08T07:10:46.719Z,13.23
2018-01-08T07:13:17.824Z,11.57
2018-01-08T07:15:47.065Z,11.37
2018-01-08T07:18:17.761Z,12.10
2018-01-08T07:20:46.587Z,11.60
2018-01-08T07:23:16.067Z,11.17
2018-01-08T07:25:45.241Z,10.73
2018-01-08T07:28:15.421Z,11.37
2018-01-08T07:30:43.766Z,11.50
2018-01-08T07:33:12.537Z,11.67
2018-01-08T07:35:41.463Z,11.20
2018-01-08T07:38:11.349Z,11.20
2018-01-08T07:40:42.489Z,9.77
2018-01-08T07:43:12.774Z,11.00
2018-01-08T07:45:42.054Z,9.37
2018-01-08T07:48:13.939Z,9.80
2018-01-08T07:50:43.472Z,11.03
2018-01-08T07:53:12.181Z,11.73
2018-01-08T07:55:41.989Z,10.47
2018-01-08T07:58:10.331Z,10.50
2018-01-08T08:00:42.533Z,9.53
2018-01-08T08:03:10.917Z,10.50
2018-01-08T08:05:40.235Z,9.37
2018-01-08T08:08:09.910Z,10.10
2018-01-08T08:10:43.393Z,9.17
2018-01-08T08:13:12.738Z,8.20
2018-01-08T08:15:41.607Z,8.67
2018-01-08T08:18:11.636Z,7.97
2018-01-08T08:20:41.908Z,8.93
2018-01-08T08:23:10.278Z,8.60
2018-01-08T08:25:39.329Z,8.80
2018-01-08T08:28:10.020Z,8.70
2018-01-08T08:30:39.246Z,8.27
2018-01-08T08:33:16.957Z,7.77
2018-01-08T08:35:45.674Z,8.70
2018-01-08T08:38:14.611Z,8.13
2018-01-08T08:40:43.591Z,8.40
2018-01-08T08:43:13.488Z,8.00
2018-01-08T08:45:44.106Z,7.83
2018-01-08T08:48:13.997Z,8.40
2018-01-08T08:50:42.584Z,8.50
2018-01-08T08:53:11.654Z,9.30
2018-01-08T08:55:40.292Z,9.40
2018-01-08T08:58:08.873Z,9.40
2018-01-08T09:00:37.777Z,9.70
2018-01-08T09:03:07.766Z,9.20
2018-01-08T09:05:37.900Z,10.37
2018-01-08T09:08:06.207Z,9.87
2018-01-08T09:10:35.612Z,11.03
2018-01-08T09:13:04.597Z,11.63
2018-01-08T09:15:32.407Z,12.13
2018-01-08T09:18:00.167Z,12.50
2018-01-08T09:20:27.721Z,12.00
2018-01-08T09:22:56.234Z,11.80
2018-01-08T09:25:23.781Z,11.93
2018-01-08T09:27:51.350Z,11.20
2018-01-08T09:30:19.867Z,12.40
2018-01-08T09:32:48.210Z,12.83
2018-01-08T09:35:16.020Z,11.83
2018-01-08T09:37:45.445Z,11.60
2018-01-08T09:40:13.986Z,13.30
2018-01-08T09:42:42.756Z,12.90
2018-01-08T09:45:10.628Z,13.50
2018-01-08T09:47:39.142Z,11.70
2018-01-08T09:50:07.498Z,12.17
2018-01-08T09:52:35.528Z,12.60
2018-01-08T09:55:03.528Z,11.63
2018-01-08T09:57:31.965Z,11.43
2018-01-08T09:59:59.552Z,11.93
2018-01-08T10:02:26.587Z,11.10
2018-01-08T10:05:07.135Z,10.60
2018-01-08T10:07:46.779Z,11.20
2018-01-08T10:10:26.129Z,11.00
2018-01-08T10:13:06.863Z,10.57
2018-01-08T10:15:46.671Z,10.93
2018-01-08T10:18:25.827Z,10.60
2018-01-08T10:20:53.389Z,10.50
2018-01-08T10:23:21.005Z,10.90
2018-01-08T10:25:49.566Z,12.50
2018-01-08T10:28:18.113Z,13.07
2018-01-08T10:30:47.019Z,14.90
2018-01-08T10:33:14.671Z,16.33
2018-01-08T10:35:43.423Z,15.20
2018-01-08T10:38:11.961Z,15.30
2018-01-08T10:40:40.166Z,14.80
2018-01-08T10:43:14.516Z,14.13
2018-01-08T10:45:48.657Z,14.90
2018-01-08T10:48:22.786Z,15.80
2018-01-08T10:50:57.859Z,15.50
2018-01-08T10:53:36.577Z,15.37
2018-01-08T10:56:09.467Z,14.23
2018-01-08T10:58:42.200Z,16.27
2018-01-08T11:01:17.988Z,15.50
2018-01-08T11:03:52.224Z,16.87
2018-01-08T11:06:20.663Z,14.87
2018-01-08T11:08:49.811Z,16.10
2018-01-08T11:11:18.215Z,14.60
2018-01-08T11:13:46.799Z,15.77
2018-01-08T11:16:14.885Z,17.63
2018-01-08T11:18:44.681Z,17.00
2018-01-08T11:21:14.127Z,18.20
2018-01-08T11:23:41.714Z,19.07
2018-01-08T11:26:09.323Z,17.90
2018-01-08T11:28:38.480Z,15.80
2018-01-08T11:31:06.926Z,17.23
2018-01-08T11:33:35.169Z,16.10
2018-01-08T11:36:03.012Z,16.30
2018-01-08T11:38:31.491Z,17.87
2018-01-08T11:41:03.263Z,17.33
2018-01-08T11:43:30.849Z,16.87
2018-01-08T11:46:01.571Z,16.73
2018-01-08T11:48:29.334Z,15.77
2018-01-08T11:50:59.085Z,15.13
2018-01-08T11:53:26.679Z,15.37
2018-01-08T11:55:56.793Z,16.13
2018-01-08T11:58:26.976Z,16.37
2018-01-08T12:00:55.676Z,16.10
2018-01-08T12:03:23.675Z,15.63
2018-01-08T12:05:54.772Z,15.87
2018-01-08T12:08:24.264Z,16.03
2018-01-08T12:10:52.747Z,16.70
2018-01-08T12:13:21.181Z,17.73
2018-01-08T12:15:51.070Z,17.53
2018-01-08T12:18:18.799Z,17.67
2018-01-08T12:20:47.951Z,19.70
2018-01-08T12:23:17.794Z,21.87
2018-01-08T12:25:46.346Z,21.50
2018-01-08T12:28:16.933Z,21.10
2018-01-08T12:30:45.703Z,22.53
2018-01-08T12:33:14.573Z,22.30
2018-01-08T12:35:47.743Z,22.30
2018-01-08T12:38:24.217Z,21.73
2018-01-08T12:40:52.785Z,22.00
2018-01-08T12:43:20.554Z,22.00
2018-01-08T12:45:52.504Z,19.60
2018-01-08T12:48:24.326Z,19.37
2018-01-08T12:50:52.926Z,21.43
2018-01-08T12:53:21.483Z,21.63
2018-01-08T12:55:50.832Z,21.37
2018-01-08T12:58:19.317Z,20.40
2018-01-08T13:00:54.212Z,23.60
2018-01-08T13:03:23.643Z,22.87
2018-01-08T13:05:52.174Z,22.63
2018-01-08T13:08:20.747Z,21.33
2018-01-08T13:10:50.497Z,22.20
2018-01-08T13:13:19.846Z,19.77
2018-01-08T13:15:50.430Z,20.53
2018-01-08T13:18:21.618Z,20.27
2018-01-08T13:20:52.056Z,22.13
2018-01-08T13:23:20.672Z,18.77
2018-01-08T13:25:51.132Z,17.60
2018-01-08T13:28:20.254Z,18.17
2018-01-08T13:30:50.671Z,19.20
2018-01-08T13:33:19.751Z,19.70
2018-01-08T13:35:53.296Z,18.77
2018-01-08T13:38:23.545Z,19.70
2018-01-08T13:40:52.113Z,18.93
2018-01-08T13:43:23.267Z,20.37
2018-01-08T13:45:53.188Z,22.67
2018-01-08T13:48:21.692Z,22.40
2018-01-08T13:50:51.633Z,24.23
2018-01-08T13:53:30.377Z,22.87
2018-01-08T13:56:00.695Z,24.80
2018-01-08T13:58:29.856Z,24.47
2018-01-08T14:01:01.358Z,23.33
2018-01-08T14:03:30.562Z,21.43
2018-01-08T14:05:59.993Z,21.13
2018-01-08T14:08:29.995Z,21.67
2018-01-08T14:10:58.933Z,21.97
2018-01-08T14:13:29.592Z,21.30
2018-01-08T14:15:58.195Z,22.30
2018-01-08T14:18:27.692Z,24.27
2018-01-08T14:20:56.853Z,22.57
2018-01-08T14:23:26.379Z,20.33
2018-01-08T14:25:55.356Z,23.33
2018-01-08T14:28:25.522Z,21.17
2018-01-08T14:30:57.283Z,19.97
2018-01-08T14:33:25.558Z,23.60
2018-01-08T14:35:56.781Z,20.23
2018-01-08T14:38:25.307Z,17.93
2018-01-08T14:40:54.192Z,19.00
2018-01-08T14:43:21.783Z,18.67
2018-01-08T14:45:50.062Z,17.43
2018-01-08T14:48:43.337Z,16.37
2018-01-08T14:51:18.816Z,15.33
2018-01-08T14:53:53.854Z,17.27
2018-01-08T14:56:42.220Z,15.77
2018-01-08T14:59:20.844Z,17.57
2018-01-08T15:01:50.087Z,17.70
2018-01-08T15:04:19.257Z,16.67
2018-01-08T15:06:49.159Z,16.70
2018-01-08T15:09:18.891Z,17.00
2018-01-08T15:11:50.775Z,18.97
2018-01-08T15:14:19.519Z,17.93
2018-01-08T15:16:48.707Z,17.93
2018-01-08T15:19:28.543Z,18.30
2018-01-08T15:21:56.243Z,17.23
2018-01-08T15:24:24.611Z,19.50
2018-01-08T15:26:52.732Z,18.80
2018-01-08T15:29:21.294Z,19.20
2018-01-08T15:31:49.903Z,19.30
2018-01-08T15:34:19.100Z,18.83
2018-01-08T15:36:47.541Z,18.10
2018-01-08T15:39:17.473Z,18.80
2018-01-08T15:41:46.416Z,17.00
2018-01-08T15:44:15.050Z,20.20
2018-01-08T15:46:43.784Z,18.03
2018-01-08T15:49:13.479Z,18.67
2018-01-08T15:51:43.256Z,18.60
2018-01-08T15:54:13.822Z,19.43
2018-01-08T15:56:43.537Z,18.50
2018-01-08T15:59:19.013Z,20.07
2018-01-08T16:01:49.050Z,19.80
2018-01-08T16:04:18.231Z,18.30
2018-01-08T16:06:47.931Z,18.20
2018-01-08T16:09:18.631Z,20.33
2018-01-08T16:11:46.626Z,17.70
2018-01-08T16:14:15.535Z,18.40
2018-01-08T16:16:44.509Z,22.30
2018-01-08T16:19:14.348Z,20.83
2018-01-08T16:21:43.896Z,18.67
2018-01-08T16:24:11.989Z,18.60
2018-01-08T16:26:41.919Z,17.40
2018-01-08T16:29:12.723Z,18.77
2018-01-08T16:31:43.082Z,21.30
2018-01-08T16:34:12.603Z,20.97
2018-01-08T16:36:43.651Z,22.30
2018-01-08T16:39:15.048Z,20.57
2018-01-08T16:41:44.395Z,17.57
2018-01-08T16:44:14.413Z,18.73
2018-01-08T16:46:47.191Z,18.97
2018-01-08T16:49:17.426Z,21.53
2018-01-08T16:51:47.561Z,19.47
2018-01-08T16:54:18.642Z,20.80
2018-01-08T16:56:49.720Z,20.87
2018-01-08T16:59:18.553Z,20.30
2018-01-08T17:01:47.966Z,20.03
2018-01-08T17:04:18.519Z,18.40
2018-01-08T17:06:48.473Z,21.53
2018-01-08T17:09:16.338Z,22.60
2018-01-08T17:11:46.573Z,21.13
2018-01-08T17:14:17.315Z,20.53
2018-01-08T17:16:46.826Z,21.43
2018-01-08T17:19:18.430Z,23.10
2018-01-08T17:21:46.746Z,20.80
2018-01-08T17:24:16.395Z,20.90
2018-01-08T17:26:58.605Z,20.10
2018-01-08T17:29:37.401Z,20.40
2018-01-08T17:32:12.222Z,21.50
2018-01-08T17:34:49.434Z,21.50
2018-01-08T17:37:22.110Z,21.40
2018-01-08T17:39:51.719Z,22.40
2018-01-08T17:42:25.011Z,22.30
2018-01-08T17:44:53.961Z,22.83
2018-01-08T17:47:24.986Z,22.33
2018-01-08T17:49:58.298Z,23.77
2018-01-08T17:52:26.707Z,22.60
2018-01-08T17:54:57.458Z,20.80
2018-01-08T17:57:26.477Z,20.50
2018-01-08T17:59:55.848Z,21.73
2018-01-08T18:02:24.321Z,21.50
2018-01-08T18:04:52.657Z,20.73
2018-01-08T18:07:22.383Z,21.50
2018-01-08T18:09:50.783Z,21.03
2018-01-08T18:12:21.850Z,21.70
2018-01-08T18:14:49.478Z,22.03
2018-01-08T18:17:19.370Z,23.33
2018-01-08T18:19:48.625Z,22.23
2018-01-08T18:22:19.272Z,22.70
2018-01-08T18:24:50.433Z,24.20
2018-01-08T18:27:19.194Z,22.73
2018-01-08T18:29:49.489Z,21.90
2018-01-08T18:32:17.050Z,22.27
2018-01-08T18:34:47.499Z,21.63
2018-01-08T18:37:15.979Z,21.33
2018-01-08T18:39:44.181Z,20.90
2018-01-08T18:42:12.806Z,19.73
2018-01-08T18:44:40.410Z,21.43
2018-01-08T18:47:09.198Z,20.80
2018-01-08T18:49:38.027Z,23.20
2018-01-08T18:52:06.243Z,22.17
2018-01-08T18:54:39.201Z,21.30
2018-01-08T18:57:12.754Z,21.70
2018-01-08T19:02:14.618Z,21.77
2018-01-08T19:04:43.894Z,20.50
2018-01-08T19:07:15.109Z,21.13
2018-01-08T19:09:44.048Z,21.83
2018-01-08T19:12:15.695Z,20.33
2018-01-08T19:14:44.789Z,21.30
2018-01-08T19:17:18.964Z,20.57
2018-01-08T19:19:47.854Z,21.00
2018-01-08T19:22:16.631Z,18.70
2018-01-08T19:24:45.695Z,19.27
2018-01-08T19:27:15.182Z,18.70
2018-01-08T19:29:43.363Z,19.93
2018-01-08T19:32:12.152Z,18.37
2018-01-08T19:34:43.893Z,18.27
2018-01-08T19:37:12.671Z,17.80
2018-01-08T19:39:45.611Z,18.53
2018-01-08T19:42:16.584Z,16.67
2018-01-08T19:44:53.222Z,16.83
2018-01-08T19:47:20.922Z,17.67
2018-01-08T19:49:49.309Z,17.30
2018-01-08T19:52:18.197Z,16.80
2018-01-08T19:54:46.832Z,15.90
2018-01-08T19:57:17.604Z,16.70
2018-01-08T19:59:47.081Z,17.70
2018-01-08T20:02:16.944Z,16.10
2018-01-08T20:04:48.058Z,17.37
2018-01-08T20:07:17.225Z,16.00
2018-01-08T20:09:46.444Z,15.87
2018-01-08T20:12:14.606Z,16.83
2018-01-08T20:14:47.631Z,15.87
2018-01-08T20:17:17.718Z,15.80
2018-01-08T20:19:46.683Z,16.57
2018-01-08T20:22:18.516Z,17.20
2018-01-08T20:24:47.632Z,16.00
2018-01-08T20:27:17.286Z,17.03
2018-01-08T20:29:48.779Z,16.60
2018-01-08T20:32:19.311Z,15.13
2018-01-08T20:34:48.535Z,16.47
2018-01-08T20:37:17.887Z,15.60
2018-01-08T20:39:49.614Z,17.50
2018-01-08T20:42:18.536Z,16.40
2018-01-08T20:44:47.575Z,15.50
2018-01-08T20:47:17.411Z,15.13
2018-01-08T20:49:47.686Z,16.20
2018-01-08T20:52:18.966Z,15.90
2018-01-08T20:54:49.039Z,17.13
2018-01-08T20:57:17.566Z,15.20
2018-01-08T20:59:47.173Z,15.33
2018-01-08T21:02:18.696Z,16.63
2018-01-08T21:04:47.976Z,15.30
2018-01-08T21:07:17.938Z,15.17
2018-01-08T21:09:47.199Z,15.30
2018-01-08T21:12:16.820Z,15.67
2018-01-08T21:14:47.728Z,14.57
2018-01-08T21:17:17.557Z,14.10
2018-01-08T21:19:47.310Z,14.83
2018-01-08T21:22:19.407Z,14.60
2018-01-08T21:24:47.068Z,14.13
2018-01-08T21:27:17.633Z,15.40
2018-01-08T21:29:47.369Z,14.13
2018-01-08T21:32:15.792Z,14.27
2018-01-08T21:34:44.147Z,14.00
2018-01-08T21:37:13.110Z,13.30
2018-01-08T21:39:41.956Z,14.13
2018-01-08T21:42:10.397Z,13.30
2018-01-08T21:44:38.955Z,12.67
2018-01-08T21:47:06.571Z,13.60
2018-01-08T21:49:34.205Z,14.50
2018-01-08T21:52:02.585Z,13.80
2018-01-08T21:54:30.807Z,14.30
2018-01-08T21:56:59.349Z,15.07
2018-01-08T21:59:28.075Z,14.40
2018-01-08T22:01:56.245Z,15.00
2018-01-08T22:04:24.669Z,13.70
2018-01-08T22:06:53.569Z,13.87
2018-01-08T22:09:21.214Z,14.27
2018-01-08T22:11:49.854Z,13.37
2018-01-08T22:17:01.165Z,14.80
2018-01-08T22:19:29.794Z,14.17
2018-01-08T22:21:58.485Z,14.83
2018-01-08T22:24:26.876Z,14.93
2018-01-08T22:26:56.511Z,15.53
2018-01-08T22:29:25.902Z,15.03
2018-01-08T22:31:54.374Z,15.30
2018-01-08T22:34:22.980Z,16.00
2018-01-08T22:36:50.690Z,14.67
2018-01-08T22:39:19.311Z,15.57
2018-01-08T22:41:46.959Z,17.40
2018-01-08T22:44:15.370Z,16.10
2018-01-08T22:46:46.176Z,16.17
2018-01-08T22:49:14.579Z,17.40
2018-01-08T22:51:43.437Z,17.23
2018-01-08T22:54:12.401Z,16.57
2018-01-08T22:56:46.645Z,17.00
2018-01-08T22:59:16.218Z,14.43
2018-01-08T23:01:44.905Z,15.33
2018-01-08T23:04:16.442Z,16.50
2018-01-08T23:06:46.586Z,16.73
2018-01-08T23:09:16.387Z,15.60
2018-01-08T23:11:46.483Z,16.07
2018-01-08T23:14:16.797Z,16.27
2018-01-08T23:16:46.141Z,15.40
2018-01-08T23:19:15.485Z,15.70
2018-01-08T23:21:46.455Z,15.97
2018-01-08T23:24:15.921Z,14.53
2018-01-08T23:26:45.556Z,15.73
2018-01-08T23:29:14.394Z,15.23
2018-01-08T23:31:45.473Z,15.63
2018-01-08T23:36:54.076Z,14.50
2018-01-08T23:39:29.345Z,13.77
2018-01-08T23:42:08.377Z,15.13
2018-01-08T23:44:45.083Z,13.27
2018-01-08T23:47:18.462Z,12.43
2018-01-08T23:49:55.663Z,12.23
2018-01-08T23:52:30.998Z,13.13
2018-01-08T23:55:01.775Z,13.73
2018-01-08T23:57:38.351Z,12.10
